Ampthill, Virginia
Current Conditions -  °F | °C
As of 12:54 AM on Saturday 25 Oct 2014 (Local Time) from KRIC Reporting Station
Few Clouds Few Clouds  
Wind Chill: 47°   Ceiling: Unl
Heat Index: 47°   Visibility: 10mi
Dew Point: 43°   Wind: 0mph
Humidity: 86%   Direction: NA
Pressure: 29.96"   Gusts: NA
Location:  37.4513°N, 77.4708°W
Report Text: KRIC 250454Z 00000KT 10SM FEW300 08/06 A2996 RMK AO2 SLP151 T00830061 402170083
Loading
Personal Weather Stations






























Interactive Weather Map New forecast layout! Learn more

10-Day Weather Forecast

Advertisements
Track Severe Weather on mobile